Time,TemperatureF,DewpointF,PressureIn,WindDirection,WindDirectionDegrees,WindSpeedMPH,WindSpeedGustMPH,Humidity,HourlyPrecipIn,Conditions,Clouds,dailyrainin,SoftwareType,DateUTC
2013-08-01 00:00:00,62.0,60.0,29.96,WSW,257,0.0,-999.0,92,-99.99,,,0.00,weatherlink.com 1.10,2013-08-01 05:00:00,
2013-08-01 00:15:00,61.5,59.0,29.96,WSW,257,0.0,-999.0,92,-99.99,,,0.00,weatherlink.com 1.10,2013-08-01 05:15:00,
2013-08-01 00:30:00,61.1,59.0,29.96,WSW,257,0.0,-999.0,93,-99.99,,,0.00,weatherlink.com 1.10,2013-08-01 05:30:00,
2013-08-01 00:45:00,60.9,59.0,29.96,West,259,0.0,-999.0,93,-99.99,,,0.00,weatherlink.com 1.10,2013-08-01 05:45:00,
2013-08-01 01:00:00,60.6,59.0,29.95,West,259,2.0,-999.0,93,-99.99,,,0.00,weatherlink.com 1.10,2013-08-01 06:00:00,
2013-08-01 01:15:00,60.6,59.0,29.95,West,274,4.0,-999.0,93,-99.99,,,0.00,weatherlink.com 1.10,2013-08-01 06:15:00,
2013-08-01 01:30:00,60.7,59.0,29.95,West,276,0.0,-999.0,93,-99.99,,,0.00,weatherlink.com 1.10,2013-08-01 06:30:00,
2013-08-01 01:45:00,60.5,59.0,29.95,West,276,0.0,-999.0,93,-99.99,,,0.00,weatherlink.com 1.10,2013-08-01 06:45:00,
2013-08-01 02:00:00,60.4,58.0,29.95,NNW,336,0.0,-999.0,93,-99.99,,,0.00,weatherlink.com 1.10,2013-08-01 07:00:00,
2013-08-01 02:15:00,60.3,58.0,29.95,North,355,0.0,-999.0,93,-99.99,,,0.00,weatherlink.com 1.10,2013-08-01 07:15:00,
2013-08-01 02:30:00,60.2,58.0,29.94,West,265,1.0,-999.0,92,-99.99,,,0.00,weatherlink.com 1.10,2013-08-01 07:30:00,
2013-08-01 02:45:00,59.8,58.0,29.95,West,268,0.0,-999.0,93,-99.99,,,0.00,weatherlink.com 1.10,2013-08-01 07:45:00,
2013-08-01 03:00:00,59.5,57.0,29.95,West,268,0.0,-999.0,92,-99.99,,,0.00,weatherlink.com 1.10,2013-08-01 08:00:00,
2013-08-01 03:15:00,59.1,57.0,29.95,WNW,296,0.0,-999.0,93,-99.99,,,0.00,weatherlink.com 1.10,2013-08-01 08:15:00,
2013-08-01 03:30:00,58.7,57.0,29.95,WNW,296,0.0,-999.0,93,-99.99,,,0.00,weatherlink.com 1.10,2013-08-01 08:30:00,
2013-08-01 03:45:00,58.5,57.0,29.95,WNW,299,0.0,-999.0,93,-99.99,,,0.00,weatherlink.com 1.10,2013-08-01 08:45:00,
2013-08-01 04:00:00,58.1,56.0,29.95,WNW,299,0.0,-999.0,93,-99.99,,,0.00,weatherlink.com 1.10,2013-08-01 09:00:00,
2013-08-01 04:15:00,57.7,56.0,29.95,WNW,299,0.0,-999.0,93,-99.99,,,0.00,weatherlink.com 1.10,2013-08-01 09:15:00,
2013-08-01 04:30:00,57.3,55.0,29.95,WNW,299,0.0,-999.0,93,-99.99,,,0.00,weatherlink.com 1.10,2013-08-01 09:30:00,
2013-08-01 04:45:00,57.1,55.0,29.96,WNW,299,0.0,-999.0,93,-99.99,,,0.00,weatherlink.com 1.10,2013-08-01 09:45:00,
2013-08-01 05:45:00,56.7,55.0,29.96,NW,307,0.0,-999.0,93,-99.99,,,0.00,weatherlink.com 1.10,2013-08-01 10:45:00,
2013-08-01 06:15:00,56.5,55.0,29.97,WNW,285,0.0,-999.0,93,-99.99,,,0.00,weatherlink.com 1.10,2013-08-01 11:15:00,
2013-08-01 06:45:00,57.5,55.0,29.98,West,275,2.0,-999.0,92,-99.99,,,0.00,weatherlink.com 1.10,2013-08-01 11:45:00,
2013-08-01 07:00:00,58.2,55.0,29.98,West,279,0.0,-999.0,90,-99.99,,,0.00,weatherlink.com 1.10,2013-08-01 12:00:00,
2013-08-01 07:15:00,59.6,56.0,29.98,North,355,0.0,-999.0,88,-99.99,,,0.00,weatherlink.com 1.10,2013-08-01 12:15:00,
2013-08-01 07:30:00,60.2,56.0,29.98,NW,320,0.0,-999.0,86,-99.99,,,0.00,weatherlink.com 1.10,2013-08-01 12:30:00,
2013-08-01 07:45:00,61.7,57.0,29.98,NW,304,0.0,-999.0,83,-99.99,,,0.00,weatherlink.com 1.10,2013-08-01 12:45:00,
2013-08-01 08:01:00,62.8,57.0,29.98,WNW,296,0.0,-999.0,80,-99.99,,,0.00,weatherlink.com 1.10,2013-08-01 13:01:00,
2013-08-01 09:31:00,68.3,57.0,29.98,West,265,4.0,-999.0,68,-99.99,,,0.00,weatherlink.com 1.10,2013-08-01 14:31:00,
2013-08-01 09:46:00,69.3,57.0,29.98,WNW,288,0.0,-999.0,64,-99.99,,,0.00,weatherlink.com 1.10,2013-08-01 14:46:00,
2013-08-01 10:31:00,70.5,56.0,29.98,NW,319,7.0,-999.0,61,-99.99,,,0.00,weatherlink.com 1.10,2013-08-01 15:31:00,
2013-08-01 12:01:00,74.0,56.0,29.99,West,281,2.0,-999.0,53,-99.99,,,0.00,weatherlink.com 1.10,2013-08-01 17:01:00,
2013-08-01 13:01:00,75.6,56.0,29.98,NW,313,6.0,-999.0,50,-99.99,,,0.00,weatherlink.com 1.10,2013-08-01 18:01:00,
2013-08-01 13:16:00,75.1,55.0,29.98,North,349,0.0,-999.0,50,-99.99,,,0.00,weatherlink.com 1.10,2013-08-01 18:16:00,
2013-08-01 13:31:00,75.2,54.0,29.97,NNW,333,1.0,-999.0,47,-99.99,,,0.00,weatherlink.com 1.10,2013-08-01 18:31:00,
2013-08-01 13:46:00,75.3,53.0,29.97,WNW,291,1.0,-999.0,46,-99.99,,,0.00,weatherlink.com 1.10,2013-08-01 18:46:00,
2013-08-01 14:01:00,76.3,53.0,29.97,NE,41,5.0,-999.0,45,-99.99,,,0.00,weatherlink.com 1.10,2013-08-01 19:01:00,
2013-08-01 14:16:00,77.3,54.0,29.97,West,263,7.0,-999.0,45,-99.99,,,0.00,weatherlink.com 1.10,2013-08-01 19:16:00,
2013-08-01 14:32:00,76.1,54.0,29.96,WNW,298,6.0,-999.0,46,-99.99,,,0.00,weatherlink.com 1.10,2013-08-01 19:32:00,
2013-08-01 15:46:00,78.1,54.0,29.95,NNW,334,0.0,-999.0,43,-99.99,,,0.00,weatherlink.com 1.10,2013-08-01 20:46:00,
2013-08-01 16:01:00,77.8,55.0,29.94,West,269,8.0,-999.0,45,-99.99,,,0.00,weatherlink.com 1.10,2013-08-01 21:01:00,
2013-08-01 16:17:00,77.8,53.0,29.93,West,263,9.0,-999.0,43,-99.99,,,0.00,weatherlink.com 1.10,2013-08-01 21:17:00,
2013-08-01 16:31:00,76.7,54.0,29.93,West,264,2.0,-999.0,46,-99.99,,,0.00,weatherlink.com 1.10,2013-08-01 21:31:00,
2013-08-01 16:47:00,78.2,56.0,29.93,West,262,5.0,-999.0,47,-99.99,,,0.00,weatherlink.com 1.10,2013-08-01 21:47:00,
2013-08-01 17:02:00,77.1,55.0,29.93,West,277,8.0,-999.0,46,-99.99,,,0.00,weatherlink.com 1.10,2013-08-01 22:02:00,
2013-08-01 17:17:00,77.0,55.0,29.92,West,272,0.0,-999.0,46,-99.99,,,0.00,weatherlink.com 1.10,2013-08-01 22:17:00,
2013-08-01 17:32:00,76.7,55.0,29.91,WSW,253,1.0,-999.0,47,-99.99,,,0.00,weatherlink.com 1.10,2013-08-01 22:32:00,
2013-08-01 17:47:00,77.3,54.0,29.91,WSW,249,5.0,-999.0,45,-99.99,,,0.00,weatherlink.com 1.10,2013-08-01 22:47:00,
2013-08-01 18:02:00,77.1,55.0,29.91,West,260,5.0,-999.0,46,-99.99,,,0.00,weatherlink.com 1.10,2013-08-01 23:02:00,
2013-08-01 18:17:00,75.3,55.0,29.91,WNW,291,6.0,-999.0,49,-99.99,,,0.00,weatherlink.com 1.10,2013-08-01 23:17:00,
2013-08-01 18:32:00,76.1,55.0,29.91,WNW,286,0.0,-999.0,49,-99.99,,,0.00,weatherlink.com 1.10,2013-08-01 23:32:00,
2013-08-01 18:47:00,75.6,56.0,29.92,NW,304,1.0,-999.0,51,-99.99,,,0.00,weatherlink.com 1.10,2013-08-01 23:47:00,
2013-08-01 19:02:00,73.9,56.0,29.91,West,273,0.0,-999.0,54,-99.99,,,0.00,weatherlink.com 1.10,2013-08-02 00:02:00,
2013-08-01 19:17:00,72.1,56.0,29.91,West,272,0.0,-999.0,58,-99.99,,,0.00,weatherlink.com 1.10,2013-08-02 00:17:00,
2013-08-01 19:32:00,71.3,57.0,29.91,West,272,0.0,-999.0,61,-99.99,,,0.00,weatherlink.com 1.10,2013-08-02 00:32:00,
2013-08-01 20:02:00,70.5,58.0,29.91,West,267,0.0,-999.0,65,-99.99,,,0.00,weatherlink.com 1.10,2013-08-02 01:02:00,
2013-08-01 20:17:00,70.1,56.0,29.91,West,267,0.0,-999.0,62,-99.99,,,0.00,weatherlink.com 1.10,2013-08-02 01:17:00,
2013-08-01 20:32:00,69.7,57.0,29.91,West,267,0.0,-999.0,64,-99.99,,,0.00,weatherlink.com 1.10,2013-08-02 01:32:00,
2013-08-01 21:02:00,69.3,56.0,29.91,West,267,0.0,-999.0,63,-99.99,,,0.00,weatherlink.com 1.10,2013-08-02 02:02:00,
2013-08-01 21:32:00,68.3,57.0,29.91,West,267,0.0,-999.0,67,-99.99,,,0.00,weatherlink.com 1.10,2013-08-02 02:32:00,
2013-08-01 21:47:00,67.3,57.0,29.91,West,267,2.0,-999.0,70,-99.99,,,0.00,weatherlink.com 1.10,2013-08-02 02:47:00,
2013-08-01 22:02:00,66.5,57.0,29.91,West,261,0.0,-999.0,72,-99.99,,,0.00,weatherlink.com 1.10,2013-08-02 03:02:00,
2013-08-01 22:32:00,65.5,57.0,29.90,West,261,0.0,-999.0,74,-99.99,,,0.00,weatherlink.com 1.10,2013-08-02 03:32:00,
2013-08-01 23:02:00,65.3,57.0,29.89,West,261,0.0,-999.0,74,-99.99,,,0.00,weatherlink.com 1.10,2013-08-02 04:02:00,
2013-08-01 23:17:00,65.5,57.0,29.88,West,261,0.0,-999.0,73,-99.99,,,0.00,weatherlink.com 1.10,2013-08-02 04:17:00,
2013-08-01 23:32:00,64.1,57.0,29.89,West,261,0.0,-999.0,78,-99.99,,,0.00,weatherlink.com 1.10,2013-08-02 04:32:00,
2013-08-01 23:47:00,63.2,57.0,29.88,West,261,0.0,-999.0,80,-99.99,,,0.00,weatherlink.com 1.10,2013-08-02 04:47:00,